Time;durP1;ratioP1;P1;durP2;ratioP2;P2;SDS_P1;SDS_P2;PMS_P1;PMS_P2;Temp;Humidity;BMP_temperature;BMP_pressure;BME280_temperature;BME280_humidity;BME280_pressure;Samples;Min_cycle;Max_cycle;Signal;HPM_P1;HPM_P2
2022/01/26 00:06:31;;;;;;;;;;;4.70;1.00;;;;;;5012727;28;19917;-78
2022/01/26 00:08:57;;;;;;;;;;;4.70;1.00;;;;;;5012262;28;19914;-78
2022/01/26 00:11:23;;;;;;;;;;;4.70;1.00;;;;;;5012947;28;19920;-78
2022/01/26 00:13:49;;;;;;;;;;;4.70;1.00;;;;;;5013834;28;19909;-78
2022/01/26 00:16:26;;;;;;;;;;;4.70;1.00;;;;;;5013086;28;19917;-78
2022/01/26 00:18:55;;;;;;;;;;;4.70;1.00;;;;;;5014305;28;20428;-78
2022/01/26 00:21:29;;;;;;;;;;;4.70;1.00;;;;;;5011987;28;19968;-78
2022/01/26 00:39:45;;;;;;;;;;;4.50;1.00;;;;;;5013037;28;19920;-78
2022/01/26 00:42:11;;;;;;;;;;;4.50;1.00;;;;;;5011178;28;20374;-79
2022/01/26 00:44:42;;;;;;;;;;;4.40;1.00;;;;;;5013132;28;19960;-79
2022/01/26 00:47:08;;;;;;;;;;;4.30;1.00;;;;;;5013106;28;19914;-78
2022/01/26 00:49:33;;;;;;;;;;;4.30;1.00;;;;;;5027490;28;19916;-78
2022/01/26 00:51:59;;;;;;;;;;;4.30;1.00;;;;;;5020885;28;20428;-78
2022/01/26 00:54:26;;;;;;;;;;;4.30;1.00;;;;;;5027584;28;19917;-78
2022/01/26 00:56:52;;;;;;;;;;;4.30;1.00;;;;;;5012565;28;20286;-79
2022/01/26 00:59:17;;;;;;;;;;;4.30;1.00;;;;;;5011993;28;19913;-78
2022/01/26 01:01:45;;;;;;;;;;;4.30;1.00;;;;;;5012447;28;20267;-78
2022/01/26 01:04:10;;;;;;;;;;;4.30;1.00;;;;;;5015902;28;19914;-79
2022/01/26 01:06:45;;;;;;;;;;;4.30;1.00;;;;;;5029200;28;19921;-79
2022/01/26 01:09:10;;;;;;;;;;;4.30;1.00;;;;;;5018431;28;19956;-79
2022/01/26 01:11:36;;;;;;;;;;;4.30;1.00;;;;;;5033610;28;19917;-79
2022/01/26 01:14:01;;;;;;;;;;;4.30;1.00;;;;;;5018043;28;19913;-79
2022/01/26 01:16:28;;;;;;;;;;;4.30;1.00;;;;;;5033391;28;20007;-78
2022/01/26 01:31:58;;;;;;;;;;;4.30;1.00;;;;;;5019218;28;20348;-79
2022/01/26 01:34:29;;;;;;;;;;;4.30;1.00;;;;;;5017622;28;20506;-79
2022/01/26 01:37:01;;;;;;;;;;;4.30;1.00;;;;;;5017231;28;19913;-79
2022/01/26 01:39:29;;;;;;;;;;;4.30;1.00;;;;;;5018861;28;19910;-79
2022/01/26 01:41:54;;;;;;;;;;;4.30;1.00;;;;;;5018045;28;19924;-79
2022/01/26 01:44:20;;;;;;;;;;;4.30;1.00;;;;;;5033098;28;19913;-79
2022/01/26 01:46:46;;;;;;;;;;;4.30;1.00;;;;;;5020056;28;19909;-79
2022/01/26 01:49:12;;;;;;;;;;;4.30;1.00;;;;;;5027680;28;19914;-79
2022/01/26 01:51:41;;;;;;;;;;;4.30;1.00;;;;;;5017613;28;19921;-79
2022/01/26 01:54:15;;;;;;;;;;;4.30;1.00;;;;;;5016833;28;20009;-79
2022/01/26 01:56:41;;;;;;;;;;;4.40;1.00;;;;;;5027409;28;19914;-79
2022/01/26 01:59:07;;;;;;;;;;;4.30;1.00;;;;;;5017026;28;19914;-79
2022/01/26 02:01:32;;;;;;;;;;;4.30;1.00;;;;;;5017045;28;19921;-79
2022/01/26 02:03:58;;;;;;;;;;;4.30;1.00;;;;;;5017419;28;20340;-78
2022/01/26 02:06:23;;;;;;;;;;;4.30;1.00;;;;;;5032843;28;19910;-79
2022/01/26 02:08:49;;;;;;;;;;;4.30;1.00;;;;;;5017455;28;19917;-79
2022/01/26 02:11:15;;;;;;;;;;;4.30;1.00;;;;;;5017030;28;20346;-78
2022/01/26 02:14:07;;;;;;;;;;;4.30;1.00;;;;;;5016866;28;20290;-79
2022/01/26 02:16:48;;;;;;;;;;;4.30;1.00;;;;;;5015764;28;19920;-79
2022/01/26 02:49:21;;;;;;;;;;;4.20;1.00;;;;;;5016814;28;19920;-79
2022/01/26 02:57:40;;;;;;;;;;;4.20;1.00;;;;;;5016615;28;19910;-79
2022/01/26 03:00:24;;;;;;;;;;;4.20;1.00;;;;;;5017017;28;19914;-79
2022/01/26 03:03:11;;;;;;;;;;;4.20;1.00;;;;;;5031276;28;19909;-79
2022/01/26 03:05:44;;;;;;;;;;;4.20;1.00;;;;;;5016043;28;19921;-78
2022/01/26 03:08:10;;;;;;;;;;;4.20;1.00;;;;;;5016101;28;19913;-79
2022/01/26 03:10:45;;;;;;;;;;;4.20;1.00;;;;;;5016009;28;19921;-78
2022/01/26 03:13:17;;;;;;;;;;;4.10;1.00;;;;;;5016106;28;19917;-79
2022/01/26 03:15:48;;;;;;;;;;;4.10;1.00;;;;;;5015652;28;19921;-81
2022/01/26 03:20:50;;;;;;;;;;;4.10;1.00;;;;;;5018329;28;19917;-79
2022/01/26 03:29:09;;;;;;;;;;;4.00;1.00;;;;;;5015367;28;19976;-79
2022/01/26 03:34:11;;;;;;;;;;;3.90;1.00;;;;;;5016663;28;20428;-79
2022/01/26 03:36:50;;;;;;;;;;;3.90;1.00;;;;;;5015343;28;19921;-79
2022/01/26 03:39:18;;;;;;;;;;;3.90;1.00;;;;;;5015284;28;19919;-79
2022/01/26 03:41:50;;;;;;;;;;;4.00;1.00;;;;;;5015724;28;20480;-79
2022/01/26 03:44:16;;;;;;;;;;;4.00;1.00;;;;;;5015876;28;19918;-79
2022/01/26 03:46:42;;;;;;;;;;;3.90;1.00;;;;;;5015990;28;19917;-78
2022/01/26 03:49:09;;;;;;;;;;;4.00;1.00;;;;;;5024025;28;19924;-79
2022/01/26 03:51:35;;;;;;;;;;;4.00;1.00;;;;;;5015522;28;19920;-79
2022/01/26 03:54:00;;;;;;;;;;;4.00;1.00;;;;;;5016004;28;19914;-79
2022/01/26 03:56:26;;;;;;;;;;;4.00;1.00;;;;;;5014117;28;19913;-79
2022/01/26 03:58:52;;;;;;;;;;;4.00;1.00;;;;;;5014659;28;20012;-79
2022/01/26 04:01:17;;;;;;;;;;;4.00;1.00;;;;;;5010820;28;19913;-78
2022/01/26 04:03:43;;;;;;;;;;;3.90;1.00;;;;;;5015007;28;19956;-79
2022/01/26 04:06:08;;;;;;;;;;;3.90;1.00;;;;;;5030875;28;19913;-78
2022/01/26 04:08:36;;;;;;;;;;;3.90;1.00;;;;;;5014660;28;19924;-80
2022/01/26 04:13:27;;;;;;;;;;;3.90;1.00;;;;;;5015778;28;19921;-79
2022/01/26 04:15:52;;;;;;;;;;;3.90;1.00;;;;;;5015846;28;20017;-79
2022/01/26 04:18:23;;;;;;;;;;;3.90;1.00;;;;;;5014751;28;19924;-78
2022/01/26 04:20:53;;;;;;;;;;;3.80;1.00;;;;;;5015171;28;19914;-79
2022/01/26 04:23:46;;;;;;;;;;;3.80;1.00;;;;;;5029859;28;19921;-78
2022/01/26 04:26:14;;;;;;;;;;;3.80;1.00;;;;;;5013051;28;19925;-79
2022/01/26 04:28:50;;;;;;;;;;;3.70;1.00;;;;;;5015148;28;19913;-79
2022/01/26 04:31:18;;;;;;;;;;;3.70;1.00;;;;;;5016130;28;19964;-79
2022/01/26 04:33:43;;;;;;;;;;;3.70;1.00;;;;;;5013862;28;19925;-79
2022/01/26 04:36:13;;;;;;;;;;;3.60;1.00;;;;;;5015234;28;20394;-79
2022/01/26 04:38:45;;;;;;;;;;;3.60;1.00;;;;;;5015498;28;19921;-79
2022/01/26 04:43:52;;;;;;;;;;;3.70;1.00;;;;;;5017847;28;19920;-79
2022/01/26 04:46:17;;;;;;;;;;;3.70;1.00;;;;;;5019984;28;19957;-79
2022/01/26 04:48:42;;;;;;;;;;;3.70;1.00;;;;;;5030866;28;20294;-79
2022/01/26 04:51:08;;;;;;;;;;;3.60;1.00;;;;;;5019584;28;19922;-79
2022/01/26 04:53:33;;;;;;;;;;;3.60;14.20;;;;;;5032254;28;19969;-79
2022/01/26 04:55:59;;;;;;;;;;;3.60;37.60;;;;;;5018571;28;19913;-79
2022/01/26 04:58:24;;;;;;;;;;;3.60;73.70;;;;;;5018533;28;20450;-79
2022/01/26 05:00:50;;;;;;;;;;;3.60;46.80;;;;;;5019055;28;20266;-79
2022/01/26 05:03:16;;;;;;;;;;;3.60;46.00;;;;;;5022019;28;19992;-79
2022/01/26 05:05:41;;;;;;;;;;;3.60;45.90;;;;;;5027555;28;20004;-79
2022/01/26 05:08:06;;;;;;;;;;;3.60;82.70;;;;;;5020714;28;19929;-78
2022/01/26 05:10:32;;;;;;;;;;;3.50;58.10;;;;;;5032679;28;19959;-79
2022/01/26 05:12:58;;;;;;;;;;;3.50;99.90;;;;;;5015466;28;19971;-79
2022/01/26 05:15:25;;;;;;;;;;;3.60;99.90;;;;;;5034373;28;19937;-79
2022/01/26 05:17:50;;;;;;;;;;;3.60;99.90;;;;;;5018131;28;19936;-79
2022/01/26 05:20:16;;;;;;;;;;;3.60;99.90;;;;;;5017990;28;19977;-79
2022/01/26 05:22:44;;;;;;;;;;;3.60;99.90;;;;;;5016838;28;19913;-79
2022/01/26 05:25:13;;;;;;;;;;;3.60;88.10;;;;;;5018480;28;19916;-79
2022/01/26 05:27:38;;;;;;;;;;;3.60;35.00;;;;;;5018248;28;19925;-78
2022/01/26 05:30:05;;;;;;;;;;;3.60;27.50;;;;;;5018553;28;20377;-79
2022/01/26 05:32:31;;;;;;;;;;;3.60;49.80;;;;;;5017106;28;19929;-79
2022/01/26 05:34:56;;;;;;;;;;;3.60;58.10;;;;;;5017521;28;19918;-79
2022/01/26 05:37:21;;;;;;;;;;;3.60;27.20;;;;;;5031514;28;20281;-79
2022/01/26 05:39:47;;;;;;;;;;;3.60;17.50;;;;;;5018726;28;19909;-79
2022/01/26 05:42:13;;;;;;;;;;;3.70;20.90;;;;;;5017484;28;20317;-79
2022/01/26 05:44:38;;;;;;;;;;;3.70;23.00;;;;;;5017582;28;20008;-78
2022/01/26 05:47:07;;;;;;;;;;;3.70;17.80;;;;;;5032633;28;19913;-78
2022/01/26 05:49:32;;;;;;;;;;;3.70;18.70;;;;;;5032434;28;20393;-79
2022/01/26 05:51:57;;;;;;;;;;;3.70;15.80;;;;;;5017831;28;19919;-78
2022/01/26 05:54:23;;;;;;;;;;;3.70;21.90;;;;;;5017063;28;19918;-79
2022/01/26 05:56:48;;;;;;;;;;;3.70;21.80;;;;;;5018886;28;19917;-79
2022/01/26 05:59:15;;;;;;;;;;;3.70;13.40;;;;;;5018246;28;19914;-79
2022/01/26 06:01:41;;;;;;;;;;;3.80;6.50;;;;;;5032533;28;20013;-79
2022/01/26 06:04:06;;;;;;;;;;;3.80;6.80;;;;;;5017271;28;20358;-79
2022/01/26 06:06:32;;;;;;;;;;;3.80;9.70;;;;;;5017289;28;19914;-79
2022/01/26 06:08:57;;;;;;;;;;;3.80;16.60;;;;;;5016672;28;20374;-78
2022/01/26 06:11:23;;;;;;;;;;;3.80;24.30;;;;;;5018196;28;20075;-79
2022/01/26 06:13:48;;;;;;;;;;;3.80;12.60;;;;;;5017586;28;19910;-79
2022/01/26 06:16:16;;;;;;;;;;;3.80;5.80;;;;;;5017913;28;19917;-78
2022/01/26 06:18:43;;;;;;;;;;;3.80;15.60;;;;;;5028120;28;20293;-79
2022/01/26 06:21:09;;;;;;;;;;;3.80;24.10;;;;;;5016613;28;19917;-78
2022/01/26 06:23:34;;;;;;;;;;;3.80;16.00;;;;;;5017982;28;19909;-79
2022/01/26 06:26:00;;;;;;;;;;;3.80;17.80;;;;;;5009525;28;19914;-79
2022/01/26 06:28:28;;;;;;;;;;;3.80;22.60;;;;;;5032778;28;19937;-79
2022/01/26 06:30:56;;;;;;;;;;;3.80;28.00;;;;;;5025325;28;19923;-79
2022/01/26 06:33:21;;;;;;;;;;;3.80;24.50;;;;;;5032358;28;20044;-78
2022/01/26 06:35:47;;;;;;;;;;;3.80;19.50;;;;;;5031164;28;19921;-79
2022/01/26 06:38:14;;;;;;;;;;;3.80;21.20;;;;;;5017579;28;19917;-78
2022/01/26 06:40:39;;;;;;;;;;;3.90;14.30;;;;;;5015350;28;19967;-79
2022/01/26 06:43:10;;;;;;;;;;;3.80;1.10;;;;;;5031342;28;19917;-78
2022/01/26 06:45:42;;;;;;;;;;;3.80;1.00;;;;;;5017952;28;19909;-79
2022/01/26 06:48:42;;;;;;;;;;;3.80;1.00;;;;;;5020860;28;19971;-78
2022/01/26 06:51:09;;;;;;;;;;;3.80;2.20;;;;;;5033300;28;20004;-79
2022/01/26 06:53:35;;;;;;;;;;;3.80;5.90;;;;;;5010645;28;19916;-79
2022/01/26 06:56:01;;;;;;;;;;;3.80;1.00;;;;;;5035401;28;19945;-79
2022/01/26 06:58:26;;;;;;;;;;;3.80;6.80;;;;;;5024718;28;19916;-79
2022/01/26 07:00:52;;;;;;;;;;;3.90;1.00;;;;;;5039876;28;20385;-80
2022/01/26 07:03:18;;;;;;;;;;;4.00;1.00;;;;;;5034860;28;19913;-79
2022/01/26 07:05:43;;;;;;;;;;;4.10;1.00;;;;;;5040744;28;19940;-80
2022/01/26 07:08:09;;;;;;;;;;;4.20;1.00;;;;;;5027660;28;19921;-79
2022/01/26 07:10:34;;;;;;;;;;;4.20;1.00;;;;;;5028566;28;19945;-79
2022/01/26 07:13:02;;;;;;;;;;;4.20;1.00;;;;;;5029921;28;19910;-79
2022/01/26 07:23:41;;;;;;;;;;;4.30;1.00;;;;;;5027198;28;19917;-79
2022/01/26 07:26:07;;;;;;;;;;;4.20;1.00;;;;;;5021826;28;19913;-79
2022/01/26 07:28:36;;;;;;;;;;;4.20;1.00;;;;;;5021316;28;19914;-79
2022/01/26 07:31:03;;;;;;;;;;;4.20;1.00;;;;;;5025012;28;19920;-79
2022/01/26 07:33:29;;;;;;;;;;;4.20;1.00;;;;;;5027054;28;19909;-79
2022/01/26 07:35:54;;;;;;;;;;;4.20;1.00;;;;;;5027670;28;19945;-79
2022/01/26 07:38:20;;;;;;;;;;;4.20;1.00;;;;;;5028139;28;19909;-79
2022/01/26 07:40:47;;;;;;;;;;;4.20;1.00;;;;;;5031511;28;20439;-79
2022/01/26 07:43:13;;;;;;;;;;;4.20;1.00;;;;;;5027234;28;19913;-79
2022/01/26 07:45:38;;;;;;;;;;;4.20;1.00;;;;;;5025853;28;19913;-79
2022/01/26 07:48:04;;;;;;;;;;;4.20;1.00;;;;;;5027245;28;19985;-79
2022/01/26 07:50:29;;;;;;;;;;;4.10;1.00;;;;;;5028988;28;19913;-79
2022/01/26 07:52:55;;;;;;;;;;;4.10;1.00;;;;;;5026538;28;19917;-79
2022/01/26 07:55:22;;;;;;;;;;;4.10;1.00;;;;;;5027254;28;19920;-80
2022/01/26 07:57:49;;;;;;;;;;;4.10;1.00;;;;;;5026945;28;19972;-79
2022/01/26 08:00:15;;;;;;;;;;;4.00;1.00;;;;;;5035920;28;19918;-79
2022/01/26 08:02:42;;;;;;;;;;;4.00;1.00;;;;;;5028009;28;19940;-79
2022/01/26 08:05:07;;;;;;;;;;;3.90;34.50;;;;;;5032314;28;20000;-78
2022/01/26 08:07:33;;;;;;;;;;;3.90;99.90;;;;;;5027087;28;19967;-79
2022/01/26 08:09:59;;;;;;;;;;;3.90;99.90;;;;;;5027800;28;19924;-79
2022/01/26 08:12:24;;;;;;;;;;;3.90;99.90;;;;;;5021844;28;19913;-79
2022/01/26 08:14:50;;;;;;;;;;;3.90;99.90;;;;;;5042124;28;20382;-79
2022/01/26 08:17:15;;;;;;;;;;;3.90;99.90;;;;;;5026243;28;19916;-79
2022/01/26 08:19:41;;;;;;;;;;;3.90;99.90;;;;;;5029159;28;19909;-79
2022/01/26 08:22:07;;;;;;;;;;;3.90;99.90;;;;;;5029459;28;19916;-79
2022/01/26 08:24:32;;;;;;;;;;;3.90;1.00;;;;;;5032904;28;19956;-79
2022/01/26 08:27:04;;;;;;;;;;;3.90;1.00;;;;;;5035163;28;19931;-78
2022/01/26 08:29:40;;;;;;;;;;;3.90;1.00;;;;;;5035409;28;19925;-78
2022/01/26 08:32:06;;;;;;;;;;;3.90;1.00;;;;;;5031246;28;19956;-79
2022/01/26 08:34:31;;;;;;;;;;;3.90;1.00;;;;;;5027808;28;19917;-79
2022/01/26 08:36:57;;;;;;;;;;;3.90;1.00;;;;;;5026357;28;19979;-79
2022/01/26 08:39:22;;;;;;;;;;;3.90;1.00;;;;;;5027016;28;20281;-79
2022/01/26 08:41:48;;;;;;;;;;;3.90;1.00;;;;;;5026803;28;19909;-79
2022/01/26 08:44:14;;;;;;;;;;;3.90;1.00;;;;;;5023398;28;19916;-78
2022/01/26 08:46:39;;;;;;;;;;;3.90;1.00;;;;;;5020077;28;19937;-78
2022/01/26 08:49:05;;;;;;;;;;;3.90;1.00;;;;;;5020386;28;19971;-78
2022/01/26 08:51:31;;;;;;;;;;;3.90;99.90;;;;;;5022032;28;19909;-78
2022/01/26 08:53:56;;;;;;;;;;;3.90;1.00;;;;;;5021990;28;20282;-78
2022/01/26 08:56:22;;;;;;;;;;;3.90;99.90;;;;;;5021808;28;20489;-78
2022/01/26 08:58:47;;;;;;;;;;;3.90;99.90;;;;;;5020670;28;19981;-78
2022/01/26 09:01:12;;;;;;;;;;;3.90;99.90;;;;;;5022253;28;20327;-78
2022/01/26 09:03:39;;;;;;;;;;;3.90;99.90;;;;;;5023228;28;19909;-79
2022/01/26 09:06:06;;;;;;;;;;;4.00;99.90;;;;;;5022259;28;19909;-78
2022/01/26 09:08:31;;;;;;;;;;;4.00;99.90;;;;;;5023955;28;19921;-79
2022/01/26 09:11:00;;;;;;;;;;;4.00;99.90;;;;;;5022822;28;19909;-78
2022/01/26 09:13:26;;;;;;;;;;;4.00;99.90;;;;;;5023740;28;19910;-78
2022/01/26 09:15:53;;;;;;;;;;;4.00;99.90;;;;;;5014086;28;20493;-78
2022/01/26 09:18:30;;;;;;;;;;;4.00;99.90;;;;;;5024227;28;19921;-79
2022/01/26 09:20:55;;;;;;;;;;;4.00;99.90;;;;;;5014889;28;19980;-78
2022/01/26 09:23:21;;;;;;;;;;;4.10;99.90;;;;;;4994824;28;19918;-78
2022/01/26 09:25:46;;;;;;;;;;;4.10;99.90;;;;;;5002794;28;19918;-78
2022/01/26 09:28:12;;;;;;;;;;;4.10;99.90;;;;;;5011189;28;20545;-78
2022/01/26 09:30:37;;;;;;;;;;;4.10;99.90;;;;;;5021190;28;20032;-78
2022/01/26 09:33:03;;;;;;;;;;;4.10;99.90;;;;;;5016006;28;19917;-78
2022/01/26 09:35:28;;;;;;;;;;;4.10;99.90;;;;;;5010767;28;19976;-78
2022/01/26 09:37:54;;;;;;;;;;;4.10;99.90;;;;;;5009275;28;20830;-78
2022/01/26 09:40:19;;;;;;;;;;;4.20;99.90;;;;;;5019410;28;19937;-78
2022/01/26 09:42:46;;;;;;;;;;;4.20;99.90;;;;;;5027905;28;19917;-78
2022/01/26 09:45:12;;;;;;;;;;;4.20;99.90;;;;;;5018186;28;19913;-77
2022/01/26 09:47:37;;;;;;;;;;;4.20;99.90;;;;;;5021196;28;19936;-78
2022/01/26 09:50:03;;;;;;;;;;;4.20;99.90;;;;;;5033618;28;20016;-78
2022/01/26 09:52:35;;;;;;;;;;;4.20;99.90;;;;;;5019102;28;19909;-78
2022/01/26 09:55:01;;;;;;;;;;;4.10;99.90;;;;;;5020016;28;20281;-77
2022/01/26 09:57:27;;;;;;;;;;;4.10;1.00;;;;;;5002281;28;19992;-78
2022/01/26 09:59:52;;;;;;;;;;;4.10;1.00;;;;;;5002071;28;19910;-78
2022/01/26 10:02:28;;;;;;;;;;;4.10;1.00;;;;;;5008209;28;19920;-78
2022/01/26 10:05:01;;;;;;;;;;;4.10;80.60;;;;;;5019154;28;19917;-78
2022/01/26 10:10:04;;;;;;;;;;;4.10;1.00;;;;;;5015302;28;19914;-78
2022/01/26 10:15:29;;;;;;;;;;;4.10;99.90;;;;;;5001075;28;19921;-77
2022/01/26 10:18:07;;;;;;;;;;;4.10;1.00;;;;;;5011452;28;20017;-77
2022/01/26 10:20:52;;;;;;;;;;;4.10;99.90;;;;;;5016772;28;19952;-77
2022/01/26 10:23:24;;;;;;;;;;;4.20;1.00;;;;;;5019825;28;20312;-78
2022/01/26 10:26:07;;;;;;;;;;;4.20;99.90;;;;;;5019693;28;20355;-77
2022/01/26 10:28:51;;;;;;;;;;;4.20;99.90;;;;;;5014001;28;19999;-78
2022/01/26 10:31:30;;;;;;;;;;;4.10;1.00;;;;;;5014566;28;19960;-78
2022/01/26 10:33:59;;;;;;;;;;;4.20;99.90;;;;;;5021367;28;19910;-78
2022/01/26 10:36:37;;;;;;;;;;;4.20;99.90;;;;;;5011306;28;20398;-77
2022/01/26 10:39:03;;;;;;;;;;;4.20;1.00;;;;;;5019780;28;19913;-78
2022/01/26 10:41:28;;;;;;;;;;;4.10;99.90;;;;;;5016684;28;19914;-78
2022/01/26 10:43:56;;;;;;;;;;;4.10;99.90;;;;;;5020177;28;19920;-79
2022/01/26 10:46:26;;;;;;;;;;;4.10;1.00;;;;;;5015966;28;19967;-79
2022/01/26 10:49:06;;;;;;;;;;;4.20;1.00;;;;;;5019972;28;19924;-78
2022/01/26 10:54:23;;;;;;;;;;;4.20;1.00;;;;;;5001913;28;20341;-78
2022/01/26 10:56:49;;;;;;;;;;;4.30;1.00;;;;;;5017257;28;20435;-78
2022/01/26 10:59:14;;;;;;;;;;;4.30;99.90;;;;;;5008456;28;19921;-78
2022/01/26 11:01:40;;;;;;;;;;;4.30;99.90;;;;;;5018354;28;19948;-78
2022/01/26 11:04:06;;;;;;;;;;;4.20;1.00;;;;;;5013965;28;19921;-78
2022/01/26 11:06:32;;;;;;;;;;;4.30;1.00;;;;;;5017706;28;20374;-78
2022/01/26 11:09:07;;;;;;;;;;;4.30;1.00;;;;;;5019177;28;19921;-79
2022/01/26 11:11:33;;;;;;;;;;;4.20;99.90;;;;;;5011716;28;20318;-78
2022/01/26 11:13:58;;;;;;;;;;;4.30;99.90;;;;;;5011814;28;19914;-78
2022/01/26 11:16:24;;;;;;;;;;;4.30;9.00;;;;;;5013855;28;19948;-79
2022/01/26 11:18:53;;;;;;;;;;;4.30;99.90;;;;;;5014868;28;19909;-78
2022/01/26 11:21:24;;;;;;;;;;;4.30;99.90;;;;;;5001183;28;20362;-78
2022/01/26 11:23:51;;;;;;;;;;;4.30;99.90;;;;;;5019287;28;19914;-78
2022/01/26 11:26:23;;;;;;;;;;;4.30;1.00;;;;;;5005789;28;19945;-78
2022/01/26 11:28:48;;;;;;;;;;;4.20;17.80;;;;;;5015617;28;19956;-78
2022/01/26 11:31:15;;;;;;;;;;;4.20;1.00;;;;;;5016898;28;19913;-79
2022/01/26 11:33:40;;;;;;;;;;;4.20;58.50;;;;;;5019932;28;20282;-78
2022/01/26 11:36:06;;;;;;;;;;;4.30;1.00;;;;;;5013647;28;19928;-79
2022/01/26 11:46:50;;;;;;;;;;;4.30;1.00;;;;;;5010710;28;19921;-78
2022/01/26 11:49:22;;;;;;;;;;;4.30;99.90;;;;;;5005248;28;19921;-78
2022/01/26 11:51:49;;;;;;;;;;;4.30;99.90;;;;;;5007121;28;20008;-78
2022/01/26 11:54:16;;;;;;;;;;;4.30;99.90;;;;;;5007497;28;19921;-78
2022/01/26 11:57:01;;;;;;;;;;;4.40;1.00;;;;;;5011310;28;20263;-78
2022/01/26 11:59:28;;;;;;;;;;;4.40;1.00;;;;;;5015228;28;19919;-78
2022/01/26 12:02:01;;;;;;;;;;;4.40;99.90;;;;;;5015835;28;19925;-78
2022/01/26 12:04:27;;;;;;;;;;;4.40;1.00;;;;;;5029561;28;19932;-78
2022/01/26 12:07:00;;;;;;;;;;;4.40;99.90;;;;;;5017767;28;19917;-77
2022/01/26 12:09:26;;;;;;;;;;;4.40;99.90;;;;;;5010802;28;19917;-77
2022/01/26 12:11:52;;;;;;;;;;;4.30;99.90;;;;;;5008570;28;19952;-78
2022/01/26 12:14:20;;;;;;;;;;;4.30;1.00;;;;;;5012399;28;19921;-78
2022/01/26 12:16:48;;;;;;;;;;;4.30;68.70;;;;;;5011842;28;19913;-78
2022/01/26 12:33:09;;;;;;;;;;;4.40;99.90;;;;;;5011880;28;19920;-77
2022/01/26 12:38:16;;;;;;;;;;;4.40;1.00;;;;;;5013369;28;19921;-78
2022/01/26 12:41:26;;;;;;;;;;;4.40;99.90;;;;;;5013434;28;19909;-78
2022/01/26 12:43:53;;;;;;;;;;;4.40;99.90;;;;;;5007559;28;20325;-77
2022/01/26 12:46:23;;;;;;;;;;;4.30;99.90;;;;;;5004357;28;19981;-78
2022/01/26 12:49:19;;;;;;;;;;;4.40;16.40;;;;;;5012418;28;20421;-78
2022/01/26 12:51:51;;;;;;;;;;;4.40;99.90;;;;;;5010622;28;19996;-78
2022/01/26 12:54:17;;;;;;;;;;;4.40;1.00;;;;;;5012188;28;19924;-78
2022/01/26 12:56:42;;;;;;;;;;;4.40;4.00;;;;;;5011910;28;19917;-78
2022/01/26 12:59:09;;;;;;;;;;;4.40;1.00;;;;;;5013760;28;20432;-78
2022/01/26 13:01:35;;;;;;;;;;;4.40;1.00;;;;;;5034646;28;19917;-78
2022/01/26 13:04:02;;;;;;;;;;;4.50;1.00;;;;;;5011084;28;19920;-77
2022/01/26 13:06:36;;;;;;;;;;;4.50;99.90;;;;;;5017315;28;20366;-77
2022/01/26 13:09:21;;;;;;;;;;;4.50;1.00;;;;;;5017105;28;19913;-78
2022/01/26 13:11:48;;;;;;;;;;;4.50;99.90;;;;;;5032493;28;20000;-78
2022/01/26 13:14:26;;;;;;;;;;;4.50;1.00;;;;;;5017344;28;19913;-77
2022/01/26 13:25:41;;;;;;;;;;;4.70;1.00;;;;;;5016452;28;19909;-78
2022/01/26 13:31:18;;;;;;;;;;;4.60;1.00;;;;;;5016776;28;19916;-78
2022/01/26 13:34:36;;;;;;;;;;;4.60;1.00;;;;;;5016093;28;19953;-78
2022/01/26 13:36:51;;;;;;;;;;;4.50;99.90;;;;;;5012842;28;19973;-77
2022/01/26 13:39:33;;;;;;;;;;;4.60;1.00;;;;;;5015518;28;19913;-77
2022/01/26 13:50:14;;;;;;;;;;;4.60;99.90;;;;;;5015845;28;19936;-77
2022/01/26 13:52:51;;;;;;;;;;;4.60;99.90;;;;;;5010546;28;19921;-78
2022/01/26 14:00:19;;;;;;;;;;;4.60;99.90;;;;;;5015642;28;20004;-77
2022/01/26 14:02:45;;;;;;;;;;;4.50;99.90;;;;;;5015058;28;19996;-78
2022/01/26 14:05:12;;;;;;;;;;;4.60;1.00;;;;;;5015264;28;19963;-78
2022/01/26 14:07:38;;;;;;;;;;;4.60;1.00;;;;;;5014925;28;19928;-78
2022/01/26 14:10:03;;;;;;;;;;;4.60;1.00;;;;;;5007194;28;19913;-77
2022/01/26 14:12:34;;;;;;;;;;;4.50;99.90;;;;;;5012456;28;19917;-78
2022/01/26 14:15:00;;;;;;;;;;;4.50;99.90;;;;;;5014450;28;19978;-78
2022/01/26 14:25:28;;;;;;;;;;;4.50;99.90;;;;;;5015579;28;19980;-79
2022/01/26 14:27:58;;;;;;;;;;;4.50;63.00;;;;;;5011753;28;19963;-78
2022/01/26 15:30:22;;;;;;;;;;;4.20;58.40;;;;;;5016036;28;20055;-78
2022/01/26 16:07:12;;;;;;;;;;;3.90;1.00;;;;;;5003392;28;20017;-78
2022/01/26 16:52:23;;;;;;;;;;;3.80;1.00;;;;;;5011483;28;20206;-78
2022/01/26 18:15:13;;;;;;;;;;;3.30;99.90;;;;;;5004399;28;19929;-78
2022/01/26 18:33:07;;;;;;;;;;;3.30;99.90;;;;;;5012780;28;19921;-76
2022/01/26 18:46:51;;;;;;;;;;;3.30;99.90;;;;;;5016376;28;20421;-78
2022/01/26 18:49:19;;;;;;;;;;;3.30;99.90;;;;;;5025838;28;19917;-78
2022/01/26 18:52:11;;;;;;;;;;;3.30;99.90;;;;;;5016795;28;19968;-77
2022/01/26 18:54:38;;;;;;;;;;;3.30;99.90;;;;;;5009580;28;19913;-78
2022/01/26 18:57:06;;;;;;;;;;;3.30;99.90;;;;;;5009167;28;19953;-78
2022/01/26 18:59:31;;;;;;;;;;;3.30;99.90;;;;;;5014247;28;19944;-80
2022/01/26 19:01:57;;;;;;;;;;;3.30;99.90;;;;;;4997340;28;19933;-78
2022/01/26 19:04:28;;;;;;;;;;;3.30;99.90;;;;;;5010864;28;19917;-79
2022/01/26 19:06:54;;;;;;;;;;;3.30;99.90;;;;;;5012158;28;20270;-78
2022/01/26 19:09:26;;;;;;;;;;;3.30;99.90;;;;;;4998440;28;19925;-78
2022/01/26 19:11:52;;;;;;;;;;;3.30;99.90;;;;;;5006310;28;20417;-78
2022/01/26 19:14:21;;;;;;;;;;;3.30;99.90;;;;;;5005132;28;20008;-78
2022/01/26 19:16:49;;;;;;;;;;;3.30;99.90;;;;;;5012710;28;19913;-78
2022/01/26 19:19:27;;;;;;;;;;;3.30;99.90;;;;;;5008129;28;19988;-78
2022/01/26 19:22:09;;;;;;;;;;;3.30;81.40;;;;;;5014399;28;20401;-78
2022/01/26 19:24:48;;;;;;;;;;;3.30;78.20;;;;;;4995168;28;20278;-78
2022/01/26 19:27:35;;;;;;;;;;;3.30;1.00;;;;;;4999580;28;19917;-78
2022/01/26 19:51:12;;;;;;;;;;;3.30;1.00;;;;;;5018005;28;19924;-77
2022/01/26 19:53:37;;;;;;;;;;;3.30;1.00;;;;;;5019250;28;19913;-77
2022/01/26 19:56:03;;;;;;;;;;;3.30;1.00;;;;;;5010078;28;19921;-78
2022/01/26 19:58:28;;;;;;;;;;;3.30;1.00;;;;;;5014069;28;19944;-78
2022/01/26 20:00:54;;;;;;;;;;;3.30;1.00;;;;;;5009356;28;20092;-77
2022/01/26 20:03:21;;;;;;;;;;;3.30;1.00;;;;;;5013500;28;19914;-78
2022/01/26 20:05:48;;;;;;;;;;;3.30;1.00;;;;;;5019691;28;20580;-78
2022/01/26 20:08:32;;;;;;;;;;;3.30;1.00;;;;;;5046485;28;19917;-77
2022/01/26 20:11:03;;;;;;;;;;;3.30;1.00;;;;;;5000111;28;19940;-78
2022/01/26 20:13:32;;;;;;;;;;;3.30;1.00;;;;;;5011278;28;20289;-79
2022/01/26 20:15:59;;;;;;;;;;;3.30;1.00;;;;;;5011010;28;19932;-78
2022/01/26 20:18:27;;;;;;;;;;;3.30;1.00;;;;;;5021490;28;20004;-78
2022/01/26 20:20:59;;;;;;;;;;;3.30;1.00;;;;;;5014497;28;19965;-78
2022/01/26 20:23:31;;;;;;;;;;;3.30;1.00;;;;;;5007023;28;19914;-77
2022/01/26 20:26:00;;;;;;;;;;;3.30;1.00;;;;;;5013207;28;19913;-78
2022/01/26 20:28:26;;;;;;;;;;;3.30;1.00;;;;;;5013699;28;19917;-78
2022/01/26 20:30:52;;;;;;;;;;;3.40;1.00;;;;;;5030707;28;19957;-78
2022/01/26 20:33:18;;;;;;;;;;;3.40;1.00;;;;;;5017028;28;20500;-78
2022/01/26 20:35:43;;;;;;;;;;;3.40;1.00;;;;;;5014931;28;19925;-79
2022/01/26 20:38:09;;;;;;;;;;;3.40;1.00;;;;;;5031331;28;19921;-79
2022/01/26 20:40:35;;;;;;;;;;;3.40;1.00;;;;;;5029224;28;20330;-79
2022/01/26 20:43:01;;;;;;;;;;;3.40;1.00;;;;;;5009528;28;20590;-78
2022/01/26 20:45:29;;;;;;;;;;;3.40;1.00;;;;;;5026437;28;19953;-79
2022/01/26 20:47:57;;;;;;;;;;;3.40;1.00;;;;;;5006258;28;19956;-79
2022/01/26 20:50:23;;;;;;;;;;;3.40;1.00;;;;;;5031334;28;19916;-79
2022/01/26 20:52:48;;;;;;;;;;;3.40;1.00;;;;;;5024788;28;20016;-79
2022/01/26 20:55:15;;;;;;;;;;;3.40;1.00;;;;;;5017242;28;19917;-79
2022/01/26 20:57:41;;;;;;;;;;;3.50;1.00;;;;;;5002584;28;19921;-79
2022/01/26 21:00:08;;;;;;;;;;;3.50;1.00;;;;;;5022916;28;19925;-79
2022/01/26 21:02:34;;;;;;;;;;;3.50;1.00;;;;;;5022822;28;19928;-80
2022/01/26 21:05:00;;;;;;;;;;;3.50;1.00;;;;;;5013348;28;19916;-79
2022/01/26 21:07:26;;;;;;;;;;;3.50;1.00;;;;;;5011416;28;20008;-79
2022/01/26 21:09:51;;;;;;;;;;;3.50;1.00;;;;;;5030890;28;19968;-81
2022/01/26 21:12:17;;;;;;;;;;;3.50;1.00;;;;;;5019840;28;19920;-81
2022/01/26 21:14:42;;;;;;;;;;;3.50;1.00;;;;;;5013227;28;19981;-79
2022/01/26 21:17:08;;;;;;;;;;;3.50;1.00;;;;;;5008569;28;19935;-81
2022/01/26 21:19:34;;;;;;;;;;;3.50;1.00;;;;;;5013889;28;19910;-79
2022/01/26 21:22:00;;;;;;;;;;;3.50;1.00;;;;;;5014363;28;19914;-79
2022/01/26 21:24:26;;;;;;;;;;;3.50;1.00;;;;;;5030674;28;19921;-79
2022/01/26 21:26:51;;;;;;;;;;;3.50;1.00;;;;;;5011398;28;19936;-79
2022/01/26 21:29:17;;;;;;;;;;;3.50;1.00;;;;;;5029190;28;19969;-79
2022/01/26 21:31:43;;;;;;;;;;;3.50;1.00;;;;;;5018299;28;19921;-79
2022/01/26 21:34:08;;;;;;;;;;;3.50;1.00;;;;;;5015785;28;19914;-79
2022/01/26 21:36:34;;;;;;;;;;;3.50;1.00;;;;;;5023057;28;19918;-79
2022/01/26 21:38:59;;;;;;;;;;;3.50;1.00;;;;;;5008209;28;19961;-79
2022/01/26 21:41:25;;;;;;;;;;;3.50;99.90;;;;;;5018456;28;20357;-79
2022/01/26 21:43:50;;;;;;;;;;;3.50;99.90;;;;;;5013824;28;19968;-79
2022/01/26 21:46:16;;;;;;;;;;;3.50;99.90;;;;;;5027719;28;20025;-81
2022/01/26 21:48:42;;;;;;;;;;;3.50;99.90;;;;;;5010602;28;19928;-79
2022/01/26 21:51:08;;;;;;;;;;;3.50;99.90;;;;;;5007255;28;19914;-79